sensor_id;sensor_type;location;lat;lon;timestamp;P1;durP1;ratioP1;P2;durP2;ratioP2
80179;SDS011;69505;52.134;5.438;2024-03-07T00:00:17;26.08;;;12.07;;
80179;SDS011;69505;52.134;5.438;2024-03-07T00:02:46;24.38;;;12.20;;
80179;SDS011;69505;52.134;5.438;2024-03-07T00:05:15;23.45;;;11.20;;
80179;SDS011;69505;52.134;5.438;2024-03-07T00:07:43;23.48;;;11.52;;
80179;SDS011;69505;52.134;5.438;2024-03-07T00:10:09;25.70;;;12.15;;
80179;SDS011;69505;52.134;5.438;2024-03-07T00:12:37;24.02;;;11.77;;
80179;SDS011;69505;52.134;5.438;2024-03-07T00:15:08;22.33;;;11.40;;
80179;SDS011;69505;52.134;5.438;2024-03-07T00:17:39;29.00;;;11.52;;
80179;SDS011;69505;52.134;5.438;2024-03-07T00:20:07;23.98;;;11.02;;
80179;SDS011;69505;52.134;5.438;2024-03-07T00:22:35;23.83;;;12.40;;
80179;SDS011;69505;52.134;5.438;2024-03-07T00:25:02;26.33;;;12.35;;
80179;SDS011;69505;52.134;5.438;2024-03-07T00:27:33;22.60;;;11.05;;
80179;SDS011;69505;52.134;5.438;2024-03-07T00:30:00;28.13;;;13.23;;
80179;SDS011;69505;52.134;5.438;2024-03-07T00:32:26;23.58;;;11.55;;
80179;SDS011;69505;52.134;5.438;2024-03-07T00:34:56;23.65;;;11.48;;
80179;SDS011;69505;52.134;5.438;2024-03-07T00:37:23;20.10;;;10.52;;
80179;SDS011;69505;52.134;5.438;2024-03-07T00:39:51;23.02;;;12.20;;
80179;SDS011;69505;52.134;5.438;2024-03-07T00:42:18;24.70;;;12.40;;
80179;SDS011;69505;52.134;5.438;2024-03-07T00:44:44;25.55;;;12.27;;
80179;SDS011;69505;52.134;5.438;2024-03-07T00:47:11;24.83;;;11.73;;
80179;SDS011;69505;52.134;5.438;2024-03-07T00:49:38;26.10;;;11.93;;
80179;SDS011;69505;52.134;5.438;2024-03-07T00:52:04;23.85;;;12.32;;
80179;SDS011;69505;52.134;5.438;2024-03-07T00:54:31;21.38;;;11.15;;
80179;SDS011;69505;52.134;5.438;2024-03-07T00:56:58;23.48;;;11.63;;
80179;SDS011;69505;52.134;5.438;2024-03-07T00:59:25;22.13;;;12.05;;
80179;SDS011;69505;52.134;5.438;2024-03-07T01:01:51;23.38;;;11.57;;
80179;SDS011;69505;52.134;5.438;2024-03-07T01:04:18;20.67;;;12.15;;
80179;SDS011;69505;52.134;5.438;2024-03-07T01:06:45;29.80;;;12.18;;
80179;SDS011;69505;52.134;5.438;2024-03-07T01:09:11;21.30;;;11.75;;
80179;SDS011;69505;52.134;5.438;2024-03-07T01:11:43;22.95;;;12.18;;
80179;SDS011;69505;52.134;5.438;2024-03-07T01:14:14;22.98;;;11.15;;
80179;SDS011;69505;52.134;5.438;2024-03-07T01:16:41;24.13;;;12.13;;
80179;SDS011;69505;52.134;5.438;2024-03-07T01:19:07;23.73;;;12.07;;
80179;SDS011;69505;52.134;5.438;2024-03-07T01:21:35;23.95;;;11.65;;
80179;SDS011;69505;52.134;5.438;2024-03-07T01:24:04;27.40;;;12.40;;
80179;SDS011;69505;52.134;5.438;2024-03-07T01:26:32;23.20;;;10.77;;
80179;SDS011;69505;52.134;5.438;2024-03-07T01:29:02;25.05;;;12.07;;
80179;SDS011;69505;52.134;5.438;2024-03-07T01:31:29;22.92;;;11.43;;
80179;SDS011;69505;52.134;5.438;2024-03-07T01:33:55;25.40;;;11.98;;
80179;SDS011;69505;52.134;5.438;2024-03-07T01:36:22;22.58;;;11.40;;
80179;SDS011;69505;52.134;5.438;2024-03-07T01:38:49;26.88;;;12.60;;
80179;SDS011;69505;52.134;5.438;2024-03-07T01:41:15;25.85;;;12.77;;
80179;SDS011;69505;52.134;5.438;2024-03-07T01:43:42;25.38;;;12.73;;
80179;SDS011;69505;52.134;5.438;2024-03-07T01:46:10;24.83;;;12.00;;
80179;SDS011;69505;52.134;5.438;2024-03-07T01:48:37;22.67;;;11.38;;
80179;SDS011;69505;52.134;5.438;2024-03-07T01:51:04;25.15;;;11.60;;
80179;SDS011;69505;52.134;5.438;2024-03-07T01:53:32;27.25;;;12.82;;
80179;SDS011;69505;52.134;5.438;2024-03-07T01:56:00;25.45;;;12.45;;
80179;SDS011;69505;52.134;5.438;2024-03-07T01:58:29;26.40;;;14.43;;
80179;SDS011;69505;52.134;5.438;2024-03-07T02:00:57;24.05;;;11.77;;
80179;SDS011;69505;52.134;5.438;2024-03-07T02:03:25;24.52;;;12.40;;
80179;SDS011;69505;52.134;5.438;2024-03-07T02:05:52;25.33;;;12.60;;
80179;SDS011;69505;52.134;5.438;2024-03-07T02:08:19;23.52;;;11.52;;
80179;SDS011;69505;52.134;5.438;2024-03-07T02:10:46;25.60;;;12.40;;
80179;SDS011;69505;52.134;5.438;2024-03-07T02:13:13;27.48;;;13.30;;
80179;SDS011;69505;52.134;5.438;2024-03-07T02:15:39;28.27;;;13.55;;
80179;SDS011;69505;52.134;5.438;2024-03-07T02:18:08;27.33;;;13.43;;
80179;SDS011;69505;52.134;5.438;2024-03-07T02:20:36;24.92;;;12.45;;
80179;SDS011;69505;52.134;5.438;2024-03-07T02:23:02;29.83;;;13.55;;
80179;SDS011;69505;52.134;5.438;2024-03-07T02:25:30;28.30;;;13.32;;
80179;SDS011;69505;52.134;5.438;2024-03-07T02:27:58;31.35;;;13.20;;
80179;SDS011;69505;52.134;5.438;2024-03-07T02:41:50;23.40;;;11.80;;
80179;SDS011;69505;52.134;5.438;2024-03-07T02:44:17;29.00;;;13.07;;
80179;SDS011;69505;52.134;5.438;2024-03-07T02:46:43;29.77;;;14.25;;
80179;SDS011;69505;52.134;5.438;2024-03-07T02:49:10;30.83;;;14.80;;
80179;SDS011;69505;52.134;5.438;2024-03-07T02:51:37;26.95;;;12.77;;
80179;SDS011;69505;52.134;5.438;2024-03-07T02:54:03;29.50;;;13.10;;
80179;SDS011;69505;52.134;5.438;2024-03-07T02:56:31;27.50;;;13.18;;
80179;SDS011;69505;52.134;5.438;2024-03-07T02:58:58;27.17;;;12.85;;
80179;SDS011;69505;52.134;5.438;2024-03-07T03:01:29;28.02;;;13.77;;
80179;SDS011;69505;52.134;5.438;2024-03-07T03:03:56;27.23;;;12.35;;
80179;SDS011;69505;52.134;5.438;2024-03-07T03:06:22;25.67;;;13.00;;
80179;SDS011;69505;52.134;5.438;2024-03-07T03:08:49;28.13;;;13.10;;
80179;SDS011;69505;52.134;5.438;2024-03-07T03:11:16;25.33;;;13.73;;
80179;SDS011;69505;52.134;5.438;2024-03-07T03:13:43;28.60;;;14.60;;
80179;SDS011;69505;52.134;5.438;2024-03-07T03:16:09;29.00;;;13.82;;
80179;SDS011;69505;52.134;5.438;2024-03-07T03:18:36;26.92;;;13.38;;
80179;SDS011;69505;52.134;5.438;2024-03-07T03:21:03;24.80;;;13.35;;
80179;SDS011;69505;52.134;5.438;2024-03-07T03:23:30;25.40;;;12.35;;
80179;SDS011;69505;52.134;5.438;2024-03-07T03:25:57;30.33;;;14.45;;
80179;SDS011;69505;52.134;5.438;2024-03-07T03:28:23;27.00;;;13.02;;
80179;SDS011;69505;52.134;5.438;2024-03-07T03:30:50;26.10;;;12.75;;
80179;SDS011;69505;52.134;5.438;2024-03-07T03:33:18;25.20;;;13.80;;
80179;SDS011;69505;52.134;5.438;2024-03-07T03:35:45;29.50;;;12.88;;
80179;SDS011;69505;52.134;5.438;2024-03-07T03:38:12;26.73;;;12.88;;
80179;SDS011;69505;52.134;5.438;2024-03-07T03:40:38;26.85;;;12.68;;
80179;SDS011;69505;52.134;5.438;2024-03-07T03:43:06;26.58;;;13.02;;
80179;SDS011;69505;52.134;5.438;2024-03-07T03:45:32;29.75;;;14.18;;
80179;SDS011;69505;52.134;5.438;2024-03-07T03:48:00;23.33;;;11.90;;
80179;SDS011;69505;52.134;5.438;2024-03-07T03:50:27;22.58;;;12.40;;
80179;SDS011;69505;52.134;5.438;2024-03-07T03:52:55;23.33;;;12.25;;
80179;SDS011;69505;52.134;5.438;2024-03-07T03:55:23;25.00;;;13.35;;
80179;SDS011;69505;52.134;5.438;2024-03-07T03:57:50;25.35;;;12.13;;
80179;SDS011;69505;52.134;5.438;2024-03-07T04:00:16;24.30;;;12.18;;
80179;SDS011;69505;52.134;5.438;2024-03-07T04:02:44;25.00;;;12.75;;
80179;SDS011;69505;52.134;5.438;2024-03-07T04:05:16;28.95;;;13.23;;
80179;SDS011;69505;52.134;5.438;2024-03-07T04:07:44;25.25;;;12.85;;
80179;SDS011;69505;52.134;5.438;2024-03-07T04:10:11;24.88;;;12.65;;
80179;SDS011;69505;52.134;5.438;2024-03-07T04:12:39;21.90;;;12.30;;
80179;SDS011;69505;52.134;5.438;2024-03-07T04:15:07;25.77;;;12.77;;
80179;SDS011;69505;52.134;5.438;2024-03-07T04:17:36;25.98;;;12.75;;
80179;SDS011;69505;52.134;5.438;2024-03-07T04:20:03;24.10;;;12.52;;
80179;SDS011;69505;52.134;5.438;2024-03-07T04:22:33;26.23;;;12.45;;
80179;SDS011;69505;52.134;5.438;2024-03-07T04:25:01;26.60;;;12.80;;
80179;SDS011;69505;52.134;5.438;2024-03-07T04:27:28;32.13;;;13.52;;
80179;SDS011;69505;52.134;5.438;2024-03-07T04:29:55;21.70;;;12.35;;
80179;SDS011;69505;52.134;5.438;2024-03-07T04:32:22;29.90;;;13.07;;
80179;SDS011;69505;52.134;5.438;2024-03-07T04:34:49;28.95;;;12.98;;
80179;SDS011;69505;52.134;5.438;2024-03-07T04:37:16;28.45;;;11.70;;
80179;SDS011;69505;52.134;5.438;2024-03-07T04:39:43;25.85;;;12.75;;
80179;SDS011;69505;52.134;5.438;2024-03-07T04:42:10;26.20;;;12.60;;
80179;SDS011;69505;52.134;5.438;2024-03-07T04:44:36;27.00;;;12.77;;
80179;SDS011;69505;52.134;5.438;2024-03-07T04:47:03;26.02;;;12.13;;
80179;SDS011;69505;52.134;5.438;2024-03-07T04:49:31;23.85;;;12.43;;
80179;SDS011;69505;52.134;5.438;2024-03-07T04:51:59;24.90;;;12.27;;
80179;SDS011;69505;52.134;5.438;2024-03-07T04:54:27;22.85;;;11.65;;
80179;SDS011;69505;52.134;5.438;2024-03-07T04:56:54;23.48;;;11.35;;
80179;SDS011;69505;52.134;5.438;2024-03-07T04:59:21;23.65;;;11.07;;
80179;SDS011;69505;52.134;5.438;2024-03-07T05:01:49;25.30;;;12.90;;
80179;SDS011;69505;52.134;5.438;2024-03-07T05:04:16;20.75;;;11.43;;
80179;SDS011;69505;52.134;5.438;2024-03-07T05:06:44;25.58;;;11.68;;
80179;SDS011;69505;52.134;5.438;2024-03-07T05:09:14;24.73;;;12.27;;
80179;SDS011;69505;52.134;5.438;2024-03-07T05:11:49;28.80;;;11.85;;
80179;SDS011;69505;52.134;5.438;2024-03-07T05:14:18;26.40;;;12.95;;
80179;SDS011;69505;52.134;5.438;2024-03-07T05:16:45;24.35;;;12.07;;
80179;SDS011;69505;52.134;5.438;2024-03-07T05:19:12;24.10;;;12.32;;
80179;SDS011;69505;52.134;5.438;2024-03-07T05:21:39;24.95;;;12.00;;
80179;SDS011;69505;52.134;5.438;2024-03-07T05:24:07;21.20;;;11.23;;
80179;SDS011;69505;52.134;5.438;2024-03-07T05:26:35;25.08;;;12.32;;
80179;SDS011;69505;52.134;5.438;2024-03-07T05:29:08;25.55;;;12.43;;
80179;SDS011;69505;52.134;5.438;2024-03-07T05:31:36;24.20;;;11.98;;
80179;SDS011;69505;52.134;5.438;2024-03-07T05:34:04;21.48;;;11.20;;
80179;SDS011;69505;52.134;5.438;2024-03-07T05:36:34;24.17;;;12.15;;
80179;SDS011;69505;52.134;5.438;2024-03-07T05:39:02;21.77;;;11.63;;
80179;SDS011;69505;52.134;5.438;2024-03-07T05:41:40;25.23;;;11.45;;
80179;SDS011;69505;52.134;5.438;2024-03-07T05:44:08;22.65;;;11.60;;
80179;SDS011;69505;52.134;5.438;2024-03-07T05:49:12;22.48;;;11.52;;
80179;SDS011;69505;52.134;5.438;2024-03-07T05:51:40;22.92;;;11.85;;
80179;SDS011;69505;52.134;5.438;2024-03-07T05:54:11;24.70;;;12.02;;
80179;SDS011;69505;52.134;5.438;2024-03-07T05:56:39;23.30;;;11.85;;
80179;SDS011;69505;52.134;5.438;2024-03-07T05:59:07;23.13;;;11.77;;
80179;SDS011;69505;52.134;5.438;2024-03-07T06:01:36;26.42;;;12.75;;
80179;SDS011;69505;52.134;5.438;2024-03-07T06:04:03;27.92;;;13.13;;
80179;SDS011;69505;52.134;5.438;2024-03-07T06:06:37;26.75;;;13.45;;
80179;SDS011;69505;52.134;5.438;2024-03-07T06:09:04;23.52;;;13.18;;
80179;SDS011;69505;52.134;5.438;2024-03-07T06:11:36;25.70;;;12.35;;
80179;SDS011;69505;52.134;5.438;2024-03-07T06:14:04;25.65;;;13.40;;
80179;SDS011;69505;52.134;5.438;2024-03-07T06:16:33;26.30;;;13.50;;
80179;SDS011;69505;52.134;5.438;2024-03-07T06:19:05;27.40;;;14.32;;
80179;SDS011;69505;52.134;5.438;2024-03-07T06:21:38;27.45;;;12.48;;
80179;SDS011;69505;52.134;5.438;2024-03-07T06:24:05;23.98;;;13.05;;
80179;SDS011;69505;52.134;5.438;2024-03-07T06:26:36;29.35;;;13.00;;
80179;SDS011;69505;52.134;5.438;2024-03-07T06:29:04;28.83;;;14.07;;
80179;SDS011;69505;52.134;5.438;2024-03-07T06:31:34;25.27;;;13.13;;
80179;SDS011;69505;52.134;5.438;2024-03-07T06:34:03;29.08;;;14.73;;
80179;SDS011;69505;52.134;5.438;2024-03-07T06:36:30;30.20;;;13.98;;
80179;SDS011;69505;52.134;5.438;2024-03-07T06:38:57;26.25;;;13.50;;
80179;SDS011;69505;52.134;5.438;2024-03-07T06:41:24;28.20;;;14.38;;
80179;SDS011;69505;52.134;5.438;2024-03-07T06:43:51;22.83;;;12.65;;
80179;SDS011;69505;52.134;5.438;2024-03-07T06:46:21;26.70;;;13.32;;
80179;SDS011;69505;52.134;5.438;2024-03-07T06:48:48;29.90;;;13.90;;
80179;SDS011;69505;52.134;5.438;2024-03-07T06:51:14;24.58;;;13.20;;
80179;SDS011;69505;52.134;5.438;2024-03-07T06:53:45;26.27;;;12.95;;
80179;SDS011;69505;52.134;5.438;2024-03-07T06:56:14;30.33;;;13.13;;
80179;SDS011;69505;52.134;5.438;2024-03-07T06:58:43;26.35;;;13.55;;
80179;SDS011;69505;52.134;5.438;2024-03-07T07:01:12;24.90;;;12.77;;
80179;SDS011;69505;52.134;5.438;2024-03-07T07:03:42;30.90;;;13.32;;
80179;SDS011;69505;52.134;5.438;2024-03-07T07:06:12;28.15;;;14.10;;
80179;SDS011;69505;52.134;5.438;2024-03-07T07:08:39;26.67;;;14.20;;
80179;SDS011;69505;52.134;5.438;2024-03-07T07:11:06;25.67;;;13.38;;
80179;SDS011;69505;52.134;5.438;2024-03-07T07:13:33;27.92;;;14.23;;
80179;SDS011;69505;52.134;5.438;2024-03-07T07:15:59;28.67;;;13.00;;
80179;SDS011;69505;52.134;5.438;2024-03-07T07:18:28;26.52;;;13.73;;
80179;SDS011;69505;52.134;5.438;2024-03-07T07:20:54;26.70;;;13.88;;
80179;SDS011;69505;52.134;5.438;2024-03-07T07:23:23;26.33;;;13.70;;
80179;SDS011;69505;52.134;5.438;2024-03-07T07:25:49;24.85;;;13.95;;
80179;SDS011;69505;52.134;5.438;2024-03-07T07:28:16;25.52;;;12.57;;
80179;SDS011;69505;52.134;5.438;2024-03-07T07:30:43;26.52;;;13.88;;
80179;SDS011;69505;52.134;5.438;2024-03-07T07:33:11;25.42;;;13.82;;
80179;SDS011;69505;52.134;5.438;2024-03-07T07:35:39;28.20;;;14.13;;
80179;SDS011;69505;52.134;5.438;2024-03-07T07:38:07;28.00;;;13.48;;
80179;SDS011;69505;52.134;5.438;2024-03-07T07:40:36;23.63;;;13.02;;
80179;SDS011;69505;52.134;5.438;2024-03-07T07:43:03;27.30;;;13.25;;
80179;SDS011;69505;52.134;5.438;2024-03-07T07:45:30;29.45;;;14.32;;
80179;SDS011;69505;52.134;5.438;2024-03-07T07:47:59;27.85;;;12.93;;
80179;SDS011;69505;52.134;5.438;2024-03-07T07:50:26;25.33;;;13.70;;
80179;SDS011;69505;52.134;5.438;2024-03-07T07:52:55;27.25;;;12.48;;
80179;SDS011;69505;52.134;5.438;2024-03-07T07:55:24;24.65;;;13.02;;
80179;SDS011;69505;52.134;5.438;2024-03-07T07:57:55;23.08;;;13.43;;
80179;SDS011;69505;52.134;5.438;2024-03-07T08:00:26;22.08;;;11.95;;
80179;SDS011;69505;52.134;5.438;2024-03-07T08:02:57;27.13;;;12.80;;
80179;SDS011;69505;52.134;5.438;2024-03-07T08:05:25;26.42;;;12.98;;
80179;SDS011;69505;52.134;5.438;2024-03-07T08:07:58;22.95;;;13.13;;
80179;SDS011;69505;52.134;5.438;2024-03-07T08:10:33;23.73;;;12.13;;
80179;SDS011;69505;52.134;5.438;2024-03-07T08:13:02;22.38;;;12.40;;
80179;SDS011;69505;52.134;5.438;2024-03-07T08:15:30;25.02;;;12.85;;
80179;SDS011;69505;52.134;5.438;2024-03-07T08:17:57;21.50;;;11.73;;
80179;SDS011;69505;52.134;5.438;2024-03-07T08:20:26;23.48;;;12.82;;
80179;SDS011;69505;52.134;5.438;2024-03-07T08:22:54;26.55;;;13.57;;
80179;SDS011;69505;52.134;5.438;2024-03-07T08:25:22;24.75;;;13.95;;
80179;SDS011;69505;52.134;5.438;2024-03-07T08:27:50;27.88;;;12.25;;
80179;SDS011;69505;52.134;5.438;2024-03-07T08:30:18;21.63;;;12.95;;
80179;SDS011;69505;52.134;5.438;2024-03-07T08:32:49;21.90;;;12.20;;
80179;SDS011;69505;52.134;5.438;2024-03-07T08:35:20;23.38;;;12.52;;
80179;SDS011;69505;52.134;5.438;2024-03-07T08:37:49;21.42;;;11.93;;
80179;SDS011;69505;52.134;5.438;2024-03-07T08:40:21;23.67;;;12.70;;
80179;SDS011;69505;52.134;5.438;2024-03-07T08:42:55;22.23;;;12.45;;
80179;SDS011;69505;52.134;5.438;2024-03-07T08:45:23;21.67;;;11.50;;
80179;SDS011;69505;52.134;5.438;2024-03-07T08:47:55;21.83;;;11.95;;
80179;SDS011;69505;52.134;5.438;2024-03-07T08:50:25;20.58;;;11.57;;
80179;SDS011;69505;52.134;5.438;2024-03-07T08:52:53;24.80;;;11.93;;
80179;SDS011;69505;52.134;5.438;2024-03-07T08:55:22;18.35;;;11.00;;
80179;SDS011;69505;52.134;5.438;2024-03-07T08:57:51;19.77;;;11.40;;
80179;SDS011;69505;52.134;5.438;2024-03-07T09:00:18;18.42;;;10.07;;
80179;SDS011;69505;52.134;5.438;2024-03-07T09:02:49;17.38;;;10.38;;
80179;SDS011;69505;52.134;5.438;2024-03-07T09:05:21;15.90;;;9.32;;
80179;SDS011;69505;52.134;5.438;2024-03-07T09:07:52;20.35;;;11.13;;
80179;SDS011;69505;52.134;5.438;2024-03-07T09:10:20;20.25;;;10.60;;
80179;SDS011;69505;52.134;5.438;2024-03-07T09:12:48;18.38;;;10.20;;
80179;SDS011;69505;52.134;5.438;2024-03-07T09:17:44;14.00;;;8.63;;
80179;SDS011;69505;52.134;5.438;2024-03-07T09:20:12;16.00;;;9.00;;
80179;SDS011;69505;52.134;5.438;2024-03-07T09:22:42;16.08;;;9.02;;
80179;SDS011;69505;52.134;5.438;2024-03-07T09:25:09;14.85;;;8.93;;
80179;SDS011;69505;52.134;5.438;2024-03-07T09:27:39;17.15;;;9.52;;
80179;SDS011;69505;52.134;5.438;2024-03-07T09:30:10;14.77;;;8.98;;
80179;SDS011;69505;52.134;5.438;2024-03-07T09:32:41;14.77;;;9.10;;
80179;SDS011;69505;52.134;5.438;2024-03-07T09:35:10;14.93;;;8.65;;
80179;SDS011;69505;52.134;5.438;2024-03-07T09:37:39;22.20;;;8.40;;
80179;SDS011;69505;52.134;5.438;2024-03-07T09:40:06;15.50;;;8.80;;
80179;SDS011;69505;52.134;5.438;2024-03-07T09:42:36;13.98;;;8.38;;
80179;SDS011;69505;52.134;5.438;2024-03-07T09:45:08;14.75;;;8.82;;
80179;SDS011;69505;52.134;5.438;2024-03-07T09:47:40;14.40;;;8.35;;
80179;SDS011;69505;52.134;5.438;2024-03-07T09:50:07;13.77;;;8.23;;
80179;SDS011;69505;52.134;5.438;2024-03-07T09:52:34;15.30;;;9.18;;
80179;SDS011;69505;52.134;5.438;2024-03-07T09:55:02;15.75;;;8.90;;
80179;SDS011;69505;52.134;5.438;2024-03-07T09:57:29;17.13;;;9.43;;
80179;SDS011;69505;52.134;5.438;2024-03-07T10:00:00;16.95;;;9.00;;
80179;SDS011;69505;52.134;5.438;2024-03-07T10:02:29;16.05;;;8.98;;
80179;SDS011;69505;52.134;5.438;2024-03-07T10:07:25;14.98;;;8.45;;
80179;SDS011;69505;52.134;5.438;2024-03-07T10:09:52;14.73;;;8.60;;
80179;SDS011;69505;52.134;5.438;2024-03-07T10:12:22;14.57;;;8.52;;
80179;SDS011;69505;52.134;5.438;2024-03-07T10:14:49;16.90;;;9.30;;
80179;SDS011;69505;52.134;5.438;2024-03-07T10:17:17;15.02;;;8.98;;
80179;SDS011;69505;52.134;5.438;2024-03-07T10:19:47;15.73;;;8.90;;
80179;SDS011;69505;52.134;5.438;2024-03-07T10:22:17;16.23;;;9.10;;
80179;SDS011;69505;52.134;5.438;2024-03-07T10:24:52;14.45;;;8.45;;
80179;SDS011;69505;52.134;5.438;2024-03-07T10:27:22;15.27;;;8.88;;
80179;SDS011;69505;52.134;5.438;2024-03-07T10:29:52;16.55;;;9.02;;
80179;SDS011;69505;52.134;5.438;2024-03-07T10:32:20;17.20;;;9.70;;
80179;SDS011;69505;52.134;5.438;2024-03-07T10:34:52;15.13;;;8.20;;
80179;SDS011;69505;52.134;5.438;2024-03-07T10:37:21;13.95;;;7.47;;
80179;SDS011;69505;52.134;5.438;2024-03-07T10:39:47;15.05;;;7.95;;
80179;SDS011;69505;52.134;5.438;2024-03-07T10:42:16;15.45;;;8.35;;
80179;SDS011;69505;52.134;5.438;2024-03-07T10:44:44;15.60;;;7.93;;
80179;SDS011;69505;52.134;5.438;2024-03-07T10:47:19;15.60;;;7.97;;
80179;SDS011;69505;52.134;5.438;2024-03-07T10:52:42;17.20;;;8.63;;
80179;SDS011;69505;52.134;5.438;2024-03-07T10:58:02;13.88;;;7.35;;
80179;SDS011;69505;52.134;5.438;2024-03-07T11:00:38;14.73;;;8.13;;
80179;SDS011;69505;52.134;5.438;2024-03-07T11:03:12;14.00;;;7.80;;
80179;SDS011;69505;52.134;5.438;2024-03-07T11:05:40;12.70;;;7.25;;
80179;SDS011;69505;52.134;5.438;2024-03-07T11:08:10;14.32;;;8.07;;
80179;SDS011;69505;52.134;5.438;2024-03-07T11:10:40;13.85;;;8.02;;
80179;SDS011;69505;52.134;5.438;2024-03-07T11:13:08;13.60;;;8.25;;
80179;SDS011;69505;52.134;5.438;2024-03-07T11:15:43;12.68;;;7.65;;
80179;SDS011;69505;52.134;5.438;2024-03-07T11:18:13;13.38;;;7.80;;
80179;SDS011;69505;52.134;5.438;2024-03-07T11:20:40;15.90;;;8.07;;
80179;SDS011;69505;52.134;5.438;2024-03-07T11:26:05;14.18;;;7.45;;
80179;SDS011;69505;52.134;5.438;2024-03-07T11:28:38;13.75;;;7.90;;
80179;SDS011;69505;52.134;5.438;2024-03-07T11:36:41;15.65;;;7.70;;
80179;SDS011;69505;52.134;5.438;2024-03-07T11:44:54;18.95;;;8.68;;
80179;SDS011;69505;52.134;5.438;2024-03-07T11:47:34;14.68;;;8.15;;
80179;SDS011;69505;52.134;5.438;2024-03-07T11:50:05;16.27;;;8.52;;
80179;SDS011;69505;52.134;5.438;2024-03-07T11:52:38;16.13;;;8.50;;
80179;SDS011;69505;52.134;5.438;2024-03-07T11:55:10;16.17;;;8.07;;
80179;SDS011;69505;52.134;5.438;2024-03-07T11:57:38;16.23;;;8.40;;
80179;SDS011;69505;52.134;5.438;2024-03-07T12:00:06;14.57;;;8.15;;
80179;SDS011;69505;52.134;5.438;2024-03-07T12:02:36;18.52;;;8.57;;
80179;SDS011;69505;52.134;5.438;2024-03-07T12:05:07;16.40;;;7.82;;
80179;SDS011;69505;52.134;5.438;2024-03-07T12:07:34;13.13;;;7.75;;
80179;SDS011;69505;52.134;5.438;2024-03-07T12:10:03;12.77;;;7.78;;
80179;SDS011;69505;52.134;5.438;2024-03-07T12:12:31;15.63;;;7.50;;
80179;SDS011;69505;52.134;5.438;2024-03-07T12:14:59;14.80;;;8.13;;
80179;SDS011;69505;52.134;5.438;2024-03-07T12:17:29;13.93;;;8.73;;
80179;SDS011;69505;52.134;5.438;2024-03-07T12:19:58;15.32;;;7.93;;
80179;SDS011;69505;52.134;5.438;2024-03-07T12:22:29;14.75;;;7.80;;
80179;SDS011;69505;52.134;5.438;2024-03-07T12:25:00;14.25;;;8.23;;
80179;SDS011;69505;52.134;5.438;2024-03-07T12:27:35;12.80;;;7.72;;
80179;SDS011;69505;52.134;5.438;2024-03-07T12:30:14;13.02;;;7.75;;
80179;SDS011;69505;52.134;5.438;2024-03-07T12:32:47;13.57;;;7.25;;
80179;SDS011;69505;52.134;5.438;2024-03-07T12:35:15;15.75;;;7.88;;
80179;SDS011;69505;52.134;5.438;2024-03-07T12:37:42;13.63;;;7.38;;
80179;SDS011;69505;52.134;5.438;2024-03-07T12:40:12;14.70;;;8.05;;
80179;SDS011;69505;52.134;5.438;2024-03-07T12:42:46;13.57;;;7.32;;
80179;SDS011;69505;52.134;5.438;2024-03-07T12:45:17;16.17;;;8.68;;
80179;SDS011;69505;52.134;5.438;2024-03-07T12:47:47;13.90;;;7.35;;
80179;SDS011;69505;52.134;5.438;2024-03-07T12:50:17;12.85;;;7.60;;
80179;SDS011;69505;52.134;5.438;2024-03-07T12:52:47;12.25;;;7.80;;
80179;SDS011;69505;52.134;5.438;2024-03-07T12:55:18;13.82;;;7.80;;
80179;SDS011;69505;52.134;5.438;2024-03-07T12:57:46;13.32;;;8.07;;
80179;SDS011;69505;52.134;5.438;2024-03-07T13:00:12;18.05;;;8.63;;
80179;SDS011;69505;52.134;5.438;2024-03-07T13:02:46;13.77;;;7.53;;
80179;SDS011;69505;52.134;5.438;2024-03-07T13:05:13;12.70;;;7.32;;
80179;SDS011;69505;52.134;5.438;2024-03-07T13:07:48;12.57;;;7.25;;
80179;SDS011;69505;52.134;5.438;2024-03-07T13:10:15;13.18;;;7.78;;
80179;SDS011;69505;52.134;5.438;2024-03-07T13:12:42;12.48;;;6.72;;
80179;SDS011;69505;52.134;5.438;2024-03-07T13:15:12;16.67;;;7.65;;
80179;SDS011;69505;52.134;5.438;2024-03-07T13:17:39;14.90;;;8.15;;
80179;SDS011;69505;52.134;5.438;2024-03-07T13:20:08;12.93;;;6.97;;
80179;SDS011;69505;52.134;5.438;2024-03-07T13:22:41;11.82;;;6.70;;
80179;SDS011;69505;52.134;5.438;2024-03-07T13:25:12;12.10;;;7.80;;
80179;SDS011;69505;52.134;5.438;2024-03-07T13:27:43;11.80;;;7.63;;
80179;SDS011;69505;52.134;5.438;2024-03-07T13:30:18;15.93;;;8.32;;
80179;SDS011;69505;52.134;5.438;2024-03-07T13:32:54;15.52;;;8.15;;
80179;SDS011;69505;52.134;5.438;2024-03-07T13:35:22;12.70;;;7.95;;
80179;SDS011;69505;52.134;5.438;2024-03-07T13:37:51;12.65;;;8.18;;
80179;SDS011;69505;52.134;5.438;2024-03-07T13:40:22;12.23;;;8.00;;
80179;SDS011;69505;52.134;5.438;2024-03-07T13:42:54;13.43;;;7.40;;
80179;SDS011;69505;52.134;5.438;2024-03-07T13:45:23;13.48;;;7.78;;
80179;SDS011;69505;52.134;5.438;2024-03-07T13:47:53;13.15;;;8.23;;
80179;SDS011;69505;52.134;5.438;2024-03-07T13:53:10;14.20;;;7.63;;
80179;SDS011;69505;52.134;5.438;2024-03-07T14:06:54;12.23;;;7.05;;
80179;SDS011;69505;52.134;5.438;2024-03-07T14:27:26;12.00;;;7.03;;
80179;SDS011;69505;52.134;5.438;2024-03-07T14:32:37;12.95;;;6.60;;
80179;SDS011;69505;52.134;5.438;2024-03-07T14:35:18;10.05;;;6.63;;
80179;SDS011;69505;52.134;5.438;2024-03-07T14:40:41;10.88;;;6.95;;
80179;SDS011;69505;52.134;5.438;2024-03-07T14:43:07;10.13;;;6.45;;
80179;SDS011;69505;52.134;5.438;2024-03-07T14:45:38;11.80;;;7.68;;
80179;SDS011;69505;52.134;5.438;2024-03-07T14:48:07;12.68;;;8.15;;
80179;SDS011;69505;52.134;5.438;2024-03-07T14:50:39;12.50;;;7.90;;
80179;SDS011;69505;52.134;5.438;2024-03-07T14:55:35;10.98;;;6.95;;
80179;SDS011;69505;52.134;5.438;2024-03-07T14:58:02;11.57;;;7.15;;
80179;SDS011;69505;52.134;5.438;2024-03-07T15:00:29;16.17;;;7.18;;
80179;SDS011;69505;52.134;5.438;2024-03-07T15:03:08;12.23;;;6.82;;
80179;SDS011;69505;52.134;5.438;2024-03-07T15:05:37;10.43;;;6.43;;
80179;SDS011;69505;52.134;5.438;2024-03-07T15:08:03;12.00;;;6.68;;
80179;SDS011;69505;52.134;5.438;2024-03-07T15:10:34;10.98;;;6.82;;
80179;SDS011;69505;52.134;5.438;2024-03-07T15:13:02;11.50;;;7.15;;
80179;SDS011;69505;52.134;5.438;2024-03-07T15:15:29;11.68;;;7.88;;
80179;SDS011;69505;52.134;5.438;2024-03-07T15:17:59;11.52;;;6.95;;
80179;SDS011;69505;52.134;5.438;2024-03-07T15:20:27;10.63;;;6.45;;
80179;SDS011;69505;52.134;5.438;2024-03-07T15:22:59;11.32;;;7.07;;
80179;SDS011;69505;52.134;5.438;2024-03-07T15:25:27;12.32;;;7.78;;
80179;SDS011;69505;52.134;5.438;2024-03-07T15:27:55;11.60;;;7.40;;
80179;SDS011;69505;52.134;5.438;2024-03-07T15:30:26;12.68;;;7.47;;
80179;SDS011;69505;52.134;5.438;2024-03-07T15:33:03;11.32;;;7.20;;
80179;SDS011;69505;52.134;5.438;2024-03-07T15:35:31;19.05;;;6.72;;
80179;SDS011;69505;52.134;5.438;2024-03-07T15:37:59;12.15;;;7.50;;
80179;SDS011;69505;52.134;5.438;2024-03-07T15:40:26;11.77;;;6.97;;
80179;SDS011;69505;52.134;5.438;2024-03-07T15:42:56;12.88;;;7.57;;
80179;SDS011;69505;52.134;5.438;2024-03-07T15:45:23;12.18;;;7.43;;
80179;SDS011;69505;52.134;5.438;2024-03-07T15:47:52;12.82;;;7.63;;
80179;SDS011;69505;52.134;5.438;2024-03-07T15:50:20;13.02;;;8.10;;
80179;SDS011;69505;52.134;5.438;2024-03-07T15:52:49;12.40;;;7.55;;